Time;durP1;ratioP1;P1;durP2;ratioP2;P2;SDS_P1;SDS_P2;PMS_P1;PMS_P2;Temp;Humidity;BMP_temperature;BMP_pressure;BME280_temperature;BME280_humidity;BME280_pressure;Samples;Min_cycle;Max_cycle;Signal;HPM_P1;HPM_P2
2023/05/11 00:00:18;;;;;;;17.40;6.25;;;;;;;;;;6226141;23;19996;-92
2023/05/11 00:02:44;;;;;;;13.20;6.85;;;;;;;;;;6225736;23;20427;-92
2023/05/11 00:05:15;;;;;;;15.32;6.35;;;;;;;;;;6225007;23;20004;-92
2023/05/11 00:07:42;;;;;;;14.95;6.32;;;;;;;;;;6203579;23;20043;-93
2023/05/11 00:10:23;;;;;;;17.50;6.18;;;;;;;;;;6200523;23;20008;-93
2023/05/11 00:12:52;;;;;;;14.75;6.57;;;;;;;;;;6204737;23;20011;-93
2023/05/11 00:15:19;;;;;;;15.25;5.50;;;;;;;;;;6202987;23;20008;-93
2023/05/11 00:17:49;;;;;;;15.00;6.78;;;;;;;;;;6226782;23;20035;-93
2023/05/11 00:20:16;;;;;;;12.10;6.35;;;;;;;;;;6224256;23;20019;-94
2023/05/11 00:22:45;;;;;;;13.98;6.38;;;;;;;;;;6222477;23;20008;-93
2023/05/11 00:25:11;;;;;;;18.23;6.03;;;;;;;;;;6224815;23;20004;-94
2023/05/11 00:27:44;;;;;;;14.80;6.78;;;;;;;;;;6225296;23;20004;-93
2023/05/11 00:30:13;;;;;;;13.90;6.35;;;;;;;;;;6201399;23;20004;-93
2023/05/11 00:32:40;;;;;;;13.23;6.68;;;;;;;;;;6226398;23;20005;-94
2023/05/11 00:35:15;;;;;;;12.02;6.35;;;;;;;;;;6199988;23;20458;-94
2023/05/11 00:37:42;;;;;;;;;;;;;;;;;;6202385;23;20465;-94
2023/05/11 00:40:09;;;;;;;14.75;6.43;;;;;;;;;;6227068;23;19911;-93
2023/05/11 00:42:58;;;;;;;14.13;6.80;;;;;;;;;;6219619;23;20020;-95
2023/05/11 00:45:31;;;;;;;17.38;7.45;;;;;;;;;;6205480;23;20015;-94
2023/05/11 00:48:00;;;;;;;16.30;7.10;;;;;;;;;;6200199;23;20430;-94
2023/05/11 00:50:27;;;;;;;14.52;7.35;;;;;;;;;;6226043;23;20031;-95
2023/05/11 00:53:10;;;;;;;18.10;7.53;;;;;;;;;;6227177;23;20012;-94
2023/05/11 00:55:39;;;;;;;12.23;6.57;;;;;;;;;;6224099;23;20066;-93
2023/05/11 00:58:28;;;;;;;16.52;7.65;;;;;;;;;;6219859;22;20021;-94
2023/05/11 01:00:54;;;;;;;15.02;6.95;;;;;;;;;;6171760;23;20048;-94
2023/05/11 01:03:44;;;;;;;17.00;6.70;;;;;;;;;;6170155;23;20017;-94
2023/05/11 01:06:21;;;;;;;13.27;6.63;;;;;;;;;;6220994;23;20013;-94
2023/05/11 01:09:02;;;;;;;12.98;6.55;;;;;;;;;;6220253;23;20089;-94
2023/05/11 01:11:48;;;;;;;14.30;5.93;;;;;;;;;;6220246;23;20028;-94
2023/05/11 01:14:34;;;;;;;15.60;6.50;;;;;;;;;;6218168;23;20001;-93
2023/05/11 01:17:07;;;;;;;12.48;6.20;;;;;;;;;;6195634;23;20015;-93
2023/05/11 01:19:45;;;;;;;15.98;6.78;;;;;;;;;;6218932;23;20012;-93
2023/05/11 01:22:43;;;;;;;10.50;6.10;;;;;;;;;;6219638;23;20008;-94
2023/05/11 01:25:22;;;;;;;12.63;6.20;;;;;;;;;;6219984;23;20024;-94
2023/05/11 01:28:08;;;;;;;11.13;5.85;;;;;;;;;;6219608;23;20187;-93
2023/05/11 01:30:42;;;;;;;12.87;5.77;;;;;;;;;;6221550;23;20016;-93
2023/05/11 01:33:11;;;;;;;11.80;6.03;;;;;;;;;;6173220;23;20193;-93
2023/05/11 01:35:41;;;;;;;12.10;5.97;;;;;;;;;;6222545;23;20002;-93
2023/05/11 01:38:10;;;;;;;13.70;5.85;;;;;;;;;;6220161;23;20063;-92
2023/05/11 01:40:38;;;;;;;12.80;6.53;;;;;;;;;;6170859;23;20463;-93
2023/05/11 01:43:17;;;;;;;;;;;;;;;;;;;;;
2023/05/11 01:45:46;;;;;;;15.57;7.28;;;;;;;;;;6226795;23;20028;-92
2023/05/11 01:48:34;;;;;;;13.48;6.20;;;;;;;;;;6222295;23;20023;-94
2023/05/11 01:51:04;;;;;;;12.75;6.82;;;;;;;;;;6187979;23;20092;-94
2023/05/11 01:53:35;;;;;;;15.07;5.65;;;;;;;;;;6222039;23;20027;-93
2023/05/11 01:56:08;;;;;;;20.75;6.25;;;;;;;;;;6225202;23;20024;-93
2023/05/11 01:58:36;;;;;;;15.07;6.82;;;;;;;;;;6236286;22;20024;-94
2023/05/11 02:01:13;;;;;;;12.27;5.85;;;;;;;;;;6224656;23;20016;-94
2023/05/11 02:03:41;;;;;;;15.02;6.38;;;;;;;;;;6247331;23;20063;-92
2023/05/11 02:06:11;;;;;;;13.18;6.25;;;;;;;;;;6246914;23;20011;-94
2023/05/11 02:08:38;;;;;;;13.52;6.03;;;;;;;;;;6249660;23;20015;-94
2023/05/11 02:11:25;;;;;;;20.85;6.93;;;;;;;;;;6248734;23;20431;-93
2023/05/11 02:13:56;;;;;;;16.67;7.07;;;;;;;;;;6248763;23;20008;-94
2023/05/11 02:16:28;;;;;;;17.73;7.28;;;;;;;;;;6247866;23;20074;-94
2023/05/11 02:18:58;;;;;;;19.95;6.95;;;;;;;;;;6222636;23;20032;-93
2023/05/11 02:21:35;;;;;;;18.95;7.43;;;;;;;;;;6249890;23;20064;-93
2023/05/11 02:24:05;;;;;;;17.33;7.18;;;;;;;;;;6248870;23;20000;-93
2023/05/11 02:26:31;;;;;;;16.73;7.55;;;;;;;;;;6248289;23;20005;-93
2023/05/11 02:28:57;;;;;;;16.77;7.07;;;;;;;;;;6224060;23;20009;-93
2023/05/11 02:31:30;;;;;;;14.63;6.30;;;;;;;;;;6223654;23;20016;-93
2023/05/11 02:34:08;;;;;;;12.93;6.38;;;;;;;;;;6249367;23;20028;-95
2023/05/11 02:36:38;;;;;;;15.02;6.93;;;;;;;;;;6247566;23;20076;-92
2023/05/11 02:39:11;;;;;;;13.38;6.25;;;;;;;;;;6249235;23;20019;-94
2023/05/11 02:41:41;;;;;;;13.10;6.10;;;;;;;;;;6249997;23;20073;-93
2023/05/11 02:44:08;;;;;;;10.23;5.60;;;;;;;;;;6250917;23;20233;-93
2023/05/11 02:46:38;;;;;;;17.55;6.28;;;;;;;;;;6225026;23;20016;-92
2023/05/11 02:49:20;;;;;;;13.07;5.90;;;;;;;;;;6248751;23;20470;-91
2023/05/11 02:52:09;;;;;;;24.95;7.32;;;;;;;;;;6251850;23;20009;-92
2023/05/11 02:54:48;;;;;;;13.73;5.78;;;;;;;;;;6216232;23;20343;-93
2023/05/11 02:57:14;;;;;;;21.58;6.65;;;;;;;;;;6224329;23;20370;-92
2023/05/11 03:00:09;;;;;;;16.88;7.20;;;;;;;;;;6249413;22;20024;-93
2023/05/11 03:02:35;;;;;;;14.50;7.03;;;;;;;;;;6247528;23;20009;-92
2023/05/11 03:05:01;;;;;;;24.17;8.57;;;;;;;;;;6220439;23;20008;-93
2023/05/11 03:07:41;;;;;;;18.42;8.10;;;;;;;;;;6220972;23;20320;-91
2023/05/11 03:10:21;;;;;;;25.85;8.93;;;;;;;;;;6250996;23;20004;-94
2023/05/11 03:12:47;;;;;;;27.48;10.02;;;;;;;;;;6247883;23;20011;-93
2023/05/11 03:15:15;;;;;;;29.70;10.77;;;;;;;;;;6222277;23;20017;-93
2023/05/11 03:17:51;;;;;;;25.30;9.80;;;;;;;;;;6248286;23;20012;-92
2023/05/11 03:20:18;;;;;;;30.42;10.07;;;;;;;;;;6245127;23;20179;-92
2023/05/11 03:22:45;;;;;;;35.45;11.27;;;;;;;;;;6247583;23;20032;-93
2023/05/11 03:25:13;;;;;;;52.95;14.18;;;;;;;;;;6245897;23;20492;-92
2023/05/11 03:27:41;;;;;;;51.05;13.32;;;;;;;;;;6246156;23;20447;-93
2023/05/11 03:30:08;;;;;;;44.75;14.40;;;;;;;;;;6244661;23;20439;-93
2023/05/11 03:32:35;;;;;;;57.17;15.48;;;;;;;;;;6243293;23;20001;-94
2023/05/11 03:35:01;;;;;;;57.70;16.50;;;;;;;;;;6246611;23;20008;-93
2023/05/11 03:37:32;;;;;;;70.05;18.15;;;;;;;;;;6246206;23;20009;-93
2023/05/11 03:40:00;;;;;;;80.53;19.65;;;;;;;;;;6246925;23;20371;-93
2023/05/11 03:42:36;;;;;;;78.78;19.63;;;;;;;;;;6247100;23;20062;-94
2023/05/11 03:45:09;;;;;;;68.45;18.90;;;;;;;;;;6246442;23;20466;-93
2023/05/11 03:47:46;;;;;;;80.22;19.80;;;;;;;;;;6247775;23;20100;-94
2023/05/11 03:50:16;;;;;;;68.90;19.23;;;;;;;;;;6246816;23;20032;-92
2023/05/11 03:52:55;;;;;;;79.70;20.73;;;;;;;;;;6223777;23;20028;-93
2023/05/11 03:55:26;;;;;;;66.63;17.60;;;;;;;;;;6224715;23;20017;-93
2023/05/11 03:57:53;;;;;;;85.47;19.35;;;;;;;;;;6247605;23;20008;-93
2023/05/11 04:00:29;;;;;;;78.40;19.90;;;;;;;;;;6249876;22;20020;-93
2023/05/11 04:02:56;;;;;;;72.07;19.10;;;;;;;;;;6245478;23;20008;-93
2023/05/11 04:05:23;;;;;;;80.97;19.77;;;;;;;;;;6221324;23;20024;-93
2023/05/11 04:07:51;;;;;;;70.88;19.02;;;;;;;;;;6249509;23;20016;-93
2023/05/11 04:10:22;;;;;;;74.13;18.95;;;;;;;;;;6244806;23;20065;-93
2023/05/11 04:12:48;;;;;;;70.50;19.25;;;;;;;;;;6247043;23;20005;-94
2023/05/11 04:15:19;;;;;;;74.32;18.33;;;;;;;;;;6248345;23;20009;-93
2023/05/11 04:17:45;;;;;;;62.28;17.88;;;;;;;;;;6247850;23;20078;-94
2023/05/11 04:20:16;;;;;;;64.82;17.45;;;;;;;;;;6221883;23;20020;-94
2023/05/11 04:22:42;;;;;;;69.20;18.25;;;;;;;;;;6225999;23;20017;-93
2023/05/11 04:25:21;;;;;;;60.40;16.23;;;;;;;;;;6223111;23;20005;-92
2023/05/11 04:27:49;;;;;;;57.83;16.85;;;;;;;;;;6222146;23;20091;-94
2023/05/11 04:30:15;;;;;;;59.17;15.65;;;;;;;;;;6223122;23;20051;-93
2023/05/11 04:32:48;;;;;;;56.78;15.38;;;;;;;;;;6222428;23;20108;-94
2023/05/11 04:35:24;;;;;;;52.97;15.25;;;;;;;;;;6222221;23;20005;-93
2023/05/11 04:37:51;;;;;;;46.90;15.35;;;;;;;;;;6249085;23;20004;-94
2023/05/11 04:40:49;;;;;;;44.75;14.27;;;;;;;;;;6247054;23;20043;-94
2023/05/11 04:43:19;;;;;;;47.75;14.48;;;;;;;;;;6202120;23;20450;-94
2023/05/11 04:46:01;;;;;;;46.78;13.88;;;;;;;;;;6221669;23;20012;-92
2023/05/11 04:48:38;;;;;;;;;;;;;;;;;;;;;
2023/05/11 04:51:06;;;;;;;38.28;14.18;;;;;;;;;;6221343;23;20039;-92
2023/05/11 04:53:34;;;;;;;40.50;12.60;;;;;;;;;;6223846;23;20097;-93
2023/05/11 04:56:06;;;;;;;32.30;11.95;;;;;;;;;;6223098;23;20495;-93
2023/05/11 04:58:33;;;;;;;40.85;13.32;;;;;;;;;;6228302;22;21193;-93
2023/05/11 05:01:10;;;;;;;39.90;13.55;;;;;;;;;;6251733;23;20012;-94
2023/05/11 05:03:50;;;;;;;40.28;13.32;;;;;;;;;;6229644;23;20012;-93
2023/05/11 05:06:28;;;;;;;42.65;13.65;;;;;;;;;;6254436;23;20012;-93
2023/05/11 05:09:03;;;;;;;46.40;13.45;;;;;;;;;;6253719;23;20027;-93
2023/05/11 05:11:52;;;;;;;46.93;14.63;;;;;;;;;;6228407;23;20019;-93
2023/05/11 05:14:24;;;;;;;49.45;14.40;;;;;;;;;;6230482;23;20000;-92
2023/05/11 05:16:53;;;;;;;45.67;14.82;;;;;;;;;;6229976;23;20008;-93
2023/05/11 05:19:25;;;;;;;48.47;13.88;;;;;;;;;;6223303;23;20012;-93
2023/05/11 05:22:14;;;;;;;39.80;13.00;;;;;;;;;;6230187;23;20038;-92
2023/05/11 05:24:46;;;;;;;39.92;13.05;;;;;;;;;;6181072;23;20062;-93
2023/05/11 05:27:12;;;;;;;31.17;12.68;;;;;;;;;;6192561;23;20362;-94
2023/05/11 05:29:40;;;;;;;30.33;12.38;;;;;;;;;;6166474;23;19989;-93
2023/05/11 05:32:10;;;;;;;30.27;12.05;;;;;;;;;;6168984;23;20009;-93
2023/05/11 05:34:42;;;;;;;32.67;11.63;;;;;;;;;;6191497;23;20096;-92
2023/05/11 05:37:18;;;;;;;26.27;10.57;;;;;;;;;;6193137;23;20025;-93
2023/05/11 05:42:37;;;;;;;16.10;7.78;;;;;;;;;;6166368;23;20013;-91
2023/05/11 05:45:13;;;;;;;22.02;8.07;;;;;;;;;;6194723;23;20037;-93
2023/05/11 05:47:57;;;;;;;13.55;6.22;;;;;;;;;;6195925;23;20029;-93
2023/05/11 05:50:33;;;;;;;18.55;6.65;;;;;;;;;;6196516;23;20081;-93
2023/05/11 05:53:13;;;;;;;;;;;;;;;;;;;;;
2023/05/11 05:55:40;;;;;;;15.80;7.43;;;;;;;;;;6178381;23;20368;-93
2023/05/11 05:58:22;;;;;;;20.23;6.85;;;;;;;;;;6195792;23;19993;-94
2023/05/11 06:00:49;;;;;;;19.00;6.88;;;;;;;;;;6171363;23;20009;-93
2023/05/11 06:03:16;;;;;;;16.20;7.00;;;;;;;;;;6225180;23;20008;-93
2023/05/11 06:06:12;;;;;;;18.67;8.02;;;;;;;;;;6227454;23;20013;-92
2023/05/11 06:08:42;;;;;;;16.20;7.00;;;;;;;;;;6226598;23;20032;-94
2023/05/11 06:11:11;;;;;;;13.52;6.32;;;;;;;;;;6226192;23;20012;-93
2023/05/11 06:13:38;;;;;;;16.50;6.93;;;;;;;;;;6224889;23;20012;-94
2023/05/11 06:16:10;;;;;;;19.33;8.00;;;;;;;;;;6200188;23;20090;-93
2023/05/11 06:18:41;;;;;;;17.63;7.63;;;;;;;;;;6251977;23;20004;-93
2023/05/11 06:21:10;;;;;;;25.13;8.98;;;;;;;;;;6250164;23;20044;-92
2023/05/11 06:23:39;;;;;;;22.88;8.43;;;;;;;;;;6251857;23;20345;-93
2023/05/11 06:26:10;;;;;;;20.55;8.25;;;;;;;;;;6253686;23;20020;-94
2023/05/11 06:28:39;;;;;;;21.02;8.02;;;;;;;;;;6253632;23;20005;-93
2023/05/11 06:31:09;;;;;;;20.40;8.20;;;;;;;;;;6203223;23;20434;-94
2023/05/11 06:33:43;;;;;;;21.40;8.82;;;;;;;;;;6224984;23;20020;-94
2023/05/11 06:36:16;;;;;;;19.73;9.20;;;;;;;;;;6250665;23;20012;-95
2023/05/11 06:38:55;;;;;;;20.25;8.65;;;;;;;;;;6230512;22;20028;-94
2023/05/11 06:41:24;;;;;;;21.83;9.98;;;;;;;;;;6222266;23;20004;-93
2023/05/11 06:43:51;;;;;;;19.75;8.60;;;;;;;;;;6253376;23;20079;-93
2023/05/11 06:46:23;;;;;;;16.63;7.72;;;;;;;;;;6224295;23;20008;-93
2023/05/11 06:48:49;;;;;;;19.15;8.73;;;;;;;;;;6248093;23;20008;-92
2023/05/11 06:51:17;;;;;;;20.42;8.80;;;;;;;;;;6224788;23;20068;-92
2023/05/11 06:53:49;;;;;;;19.00;9.10;;;;;;;;;;6227344;22;19992;-93
2023/05/11 06:56:20;;;;;;;18.42;8.50;;;;;;;;;;6225208;23;20081;-93
2023/05/11 06:58:47;;;;;;;16.30;8.35;;;;;;;;;;6254468;22;20004;-93
2023/05/11 07:01:17;;;;;;;18.33;8.68;;;;;;;;;;6207452;23;20013;-93
2023/05/11 07:03:43;;;;;;;18.75;9.13;;;;;;;;;;6204964;23;20065;-93
2023/05/11 07:06:09;;;;;;;22.40;8.55;;;;;;;;;;6202344;23;20020;-93
2023/05/11 07:08:35;;;;;;;18.58;9.20;;;;;;;;;;6228433;23;20015;-93
2023/05/11 07:11:09;;;;;;;19.33;8.43;;;;;;;;;;6228167;23;20004;-93
2023/05/11 07:13:38;;;;;;;16.35;9.10;;;;;;;;;;6227667;23;20007;-93
2023/05/11 07:16:05;;;;;;;20.73;8.50;;;;;;;;;;6227608;23;19999;-93
2023/05/11 07:18:32;;;;;;;14.70;8.25;;;;;;;;;;6230670;23;20008;-93
2023/05/11 07:21:01;;;;;;;17.65;8.43;;;;;;;;;;6203246;23;20015;-92
2023/05/11 07:23:35;;;;;;;13.18;7.50;;;;;;;;;;6229617;23;20079;-94
2023/05/11 07:26:07;;;;;;;16.92;8.95;;;;;;;;;;6228543;23;20509;-93
2023/05/11 07:28:37;;;;;;;15.43;8.70;;;;;;;;;;6205368;23;20012;-94
2023/05/11 07:31:07;;;;;;;16.20;8.27;;;;;;;;;;6237228;23;20004;-93
2023/05/11 07:33:54;;;;;;;14.10;7.82;;;;;;;;;;6209677;23;20173;-93
2023/05/11 07:36:20;;;;;;;;;;;;;;;;;;6262341;22;20002;-93
2023/05/11 07:38:52;;;;;;;18.92;7.95;;;;;;;;;;6231378;22;19927;-93
2023/05/11 07:41:25;;;;;;;16.45;8.32;;;;;;;;;;6204165;23;20004;-93
2023/05/11 07:51:40;;;;;;;14.80;7.00;;;;;;;;;;6232208;22;19938;-93
2023/05/11 07:54:22;;;;;;;14.88;7.85;;;;;;;;;;6228541;23;20015;-94
2023/05/11 07:56:51;;;;;;;14.80;8.07;;;;;;;;;;6231123;22;20019;-89
2023/05/11 07:59:24;;;;;;;13.75;7.88;;;;;;;;;;6231018;23;20008;-90
2023/05/11 08:05:01;;;;;;;15.02;7.80;;;;;;;;;;6105475;23;20025;-93
2023/05/11 08:07:28;;;;;;;16.13;8.10;;;;;;;;;;6232817;22;20024;-90
2023/05/11 08:09:54;;;;;;;14.48;7.43;;;;;;;;;;6201969;23;20043;-92
2023/05/11 08:12:33;;;;;;;13.77;7.03;;;;;;;;;;6209556;23;20016;-94
2023/05/11 08:15:14;;;;;;;12.68;7.60;;;;;;;;;;6233511;23;20019;-92
2023/05/11 08:20:59;;;;;;;16.35;8.32;;;;;;;;;;6254802;23;20086;-92
2023/05/11 08:23:46;;;;;;;13.30;7.03;;;;;;;;;;6251948;23;20005;-92
2023/05/11 08:26:22;;;;;;;15.10;7.43;;;;;;;;;;6226461;23;20004;-92
2023/05/11 08:28:51;;;;;;;;;;;;;;;;;;6227315;23;20039;-94
2023/05/11 08:31:22;;;;;;;14.25;7.07;;;;;;;;;;6253502;23;19942;-93
2023/05/11 08:34:09;;;;;;;14.50;6.53;;;;;;;;;;6201052;23;20016;-93
2023/05/11 08:36:37;;;;;;;;;;;;;;;;;;6230064;23;20108;-93
2023/05/11 08:39:03;;;;;;;12.57;6.00;;;;;;;;;;6227104;23;19953;-92
2023/05/11 08:41:40;;;;;;;13.63;7.35;;;;;;;;;;6203080;23;20059;-93
2023/05/11 08:44:29;;;;;;;;;;;;;;;;;;;;;
2023/05/11 08:46:59;;;;;;;9.40;5.78;;;;;;;;;;6224865;23;20028;-92
2023/05/11 08:49:26;;;;;;;10.73;6.35;;;;;;;;;;6198329;23;20004;-92
2023/05/11 08:51:52;;;;;;;12.65;6.70;;;;;;;;;;6188821;22;20013;-92
2023/05/11 08:54:22;;;;;;;12.32;7.18;;;;;;;;;;6197444;23;20028;-93
2023/05/11 09:07:47;;;;;;;12.55;6.60;;;;;;;;;;6265153;22;20042;-93
2023/05/11 09:10:22;;;;;;;11.38;6.07;;;;;;;;;;6226368;23;20016;-93
2023/05/11 09:13:09;;;;;;;11.50;6.50;;;;;;;;;;6206990;23;19996;-93
2023/05/11 09:15:40;;;;;;;15.48;7.07;;;;;;;;;;6232727;23;20034;-93
2023/05/11 09:21:13;;;;;;;10.82;6.68;;;;;;;;;;6162124;23;20009;-94
2023/05/11 09:23:40;;;;;;;12.70;6.40;;;;;;;;;;6153798;23;20008;-93
2023/05/11 09:26:28;;;;;;;11.23;6.30;;;;;;;;;;6227497;23;20074;-93
2023/05/11 09:28:58;;;;;;;9.48;6.03;;;;;;;;;;6228191;23;20055;-94
2023/05/11 09:34:55;;;;;;;;;;;;;;;;;;;;;
2023/05/11 09:37:34;;;;;;;10.63;6.43;;;;;;;;;;6266579;23;20012;-93
2023/05/11 09:40:06;;;;;;;11.45;6.55;;;;;;;;;;6253273;23;20015;-94
2023/05/11 09:42:33;;;;;;;11.50;6.80;;;;;;;;;;6203371;23;20047;-94
2023/05/11 09:45:11;;;;;;;9.95;6.15;;;;;;;;;;6228897;23;20054;-94
2023/05/11 09:47:53;;;;;;;12.30;6.93;;;;;;;;;;6228935;23;20008;-92
2023/05/11 09:50:19;;;;;;;12.35;7.30;;;;;;;;;;6232381;23;20004;-93
2023/05/11 09:52:56;;;;;;;11.02;6.53;;;;;;;;;;6257612;23;20008;-93
2023/05/11 09:55:32;;;;;;;11.13;7.03;;;;;;;;;;6255983;23;20024;-93
2023/05/11 09:58:10;;;;;;;12.13;6.75;;;;;;;;;;6256687;23;20084;-93
2023/05/11 10:00:50;;;;;;;11.05;7.05;;;;;;;;;;6256413;23;20039;-93
2023/05/11 10:03:20;;;;;;;12.77;7.18;;;;;;;;;;6257416;23;20019;-94
2023/05/11 10:06:02;;;;;;;12.77;7.15;;;;;;;;;;6254963;23;20012;-92
2023/05/11 10:08:34;;;;;;;11.40;7.28;;;;;;;;;;6271445;22;20049;-93
2023/05/11 10:11:05;;;;;;;14.38;7.00;;;;;;;;;;6288056;22;20059;-92
2023/05/11 10:13:33;;;;;;;10.43;6.35;;;;;;;;;;6263119;22;20035;-93
2023/05/11 10:16:09;;;;;;;12.50;6.80;;;;;;;;;;6287720;22;20396;-93
2023/05/11 10:18:58;;;;;;;10.75;6.80;;;;;;;;;;6289531;22;20004;-93
2023/05/11 10:21:34;;;;;;;;;;;;;;;;;;;;;
2023/05/11 10:24:10;;;;;;;10.45;5.80;;;;;;;;;;6286472;22;20023;-94
2023/05/11 10:26:41;;;;;;;10.32;6.57;;;;;;;;;;6259553;22;20007;-93
2023/05/11 10:29:16;;;;;;;8.88;5.82;;;;;;;;;;6286713;22;20000;-94
2023/05/11 10:31:44;;;;;;;10.03;6.37;;;;;;;;;;6286948;22;20465;-94
2023/05/11 10:34:14;;;;;;;14.50;5.53;;;;;;;;;;6290471;22;20239;-95
2023/05/11 10:36:49;;;;;;;13.63;5.65;;;;;;;;;;6292186;22;20000;-94
2023/05/11 14:14:14;;;;;;;3.20;2.40;;;;;;;;;;6287913;22;20058;-93
2023/05/11 14:16:48;;;;;;;3.65;2.70;;;;;;;;;;6264595;22;20441;-92
2023/05/11 14:19:17;;;;;;;5.95;3.25;;;;;;;;;;6265162;22;20151;-93
2023/05/11 14:21:47;;;;;;;4.57;3.38;;;;;;;;;;6287194;22;20027;-93
2023/05/11 14:27:06;;;;;;;4.35;3.40;;;;;;;;;;6290177;22;20062;-93
2023/05/11 14:29:32;;;;;;;4.70;3.63;;;;;;;;;;6261036;22;20027;-94
2023/05/11 14:31:59;;;;;;;4.35;3.10;;;;;;;;;;6285565;22;20008;-92
2023/05/11 14:34:31;;;;;;;8.63;4.05;;;;;;;;;;6289450;22;19987;-94
2023/05/11 14:37:09;;;;;;;9.20;4.22;;;;;;;;;;6287059;22;20634;-93
2023/05/11 14:40:00;;;;;;;5.50;3.85;;;;;;;;;;6287310;22;20090;-93
2023/05/11 14:42:28;;;;;;;6.35;3.78;;;;;;;;;;6287832;22;20053;-93
2023/05/11 14:44:55;;;;;;;5.05;4.10;;;;;;;;;;6288183;22;20356;-94
2023/05/11 14:47:29;;;;;;;7.40;3.58;;;;;;;;;;6286725;22;20026;-93
2023/05/11 14:49:55;;;;;;;5.55;4.00;;;;;;;;;;6286537;22;20004;-93
2023/05/11 14:52:26;;;;;;;7.70;3.88;;;;;;;;;;6258240;22;20113;-96
2023/05/11 14:55:00;;;;;;;5.78;3.95;;;;;;;;;;6261896;22;20008;-94
2023/05/11 14:57:27;;;;;;;79.32;5.88;;;;;;;;;;6262828;22;20012;-95
2023/05/11 15:00:00;;;;;;;5.55;4.03;;;;;;;;;;6287344;22;20055;-95
2023/05/11 15:02:27;;;;;;;6.47;3.90;;;;;;;;;;6287508;22;20014;-95
2023/05/11 15:04:59;;;;;;;7.40;4.45;;;;;;;;;;6285623;22;20446;-94
2023/05/11 15:07:52;;;;;;;7.85;4.20;;;;;;;;;;6285869;22;20017;-94
2023/05/11 15:10:30;;;;;;;6.18;4.53;;;;;;;;;;6268096;22;20007;-94
2023/05/11 15:13:05;;;;;;;6.28;4.15;;;;;;;;;;6263722;22;20058;-95
2023/05/11 15:15:44;;;;;;;7.32;4.20;;;;;;;;;;6287931;22;20454;-94
2023/05/11 15:18:18;;;;;;;5.60;3.80;;;;;;;;;;6289261;22;20456;-95
2023/05/11 15:20:54;;;;;;;6.88;4.60;;;;;;;;;;6285425;22;20012;-95
2023/05/11 15:23:30;;;;;;;;;;;;;;;;;;;;;
2023/05/11 15:26:30;;;;;;;;;;;;;;;;;;;;;
2023/05/11 15:29:23;;;;;;;6.82;4.05;;;;;;;;;;6282554;22;20097;-94
2023/05/11 15:31:54;;;;;;;5.72;3.80;;;;;;;;;;6283359;22;20007;-95
2023/05/11 15:34:43;;;;;;;6.25;4.25;;;;;;;;;;6287082;22;20072;-95
2023/05/11 15:37:21;;;;;;;6.13;4.18;;;;;;;;;;6287088;22;20012;-95
2023/05/11 15:39:50;;;;;;;7.43;5.55;;;;;;;;;;6285100;22;20082;-95
2023/05/11 15:47:56;;;;;;;8.38;5.63;;;;;;;;;;6272789;22;20016;-93
2023/05/11 15:50:40;;;;;;;8.65;5.65;;;;;;;;;;6285189;22;20096;-94
2023/05/11 15:56:20;;;;;;;12.40;6.38;;;;;;;;;;6261683;22;20016;-95
2023/05/11 15:58:53;;;;;;;10.68;7.22;;;;;;;;;;6288454;22;20014;-95
2023/05/11 16:04:24;;;;;;;13.40;7.50;;;;;;;;;;6168894;23;20028;-93
2023/05/11 16:10:09;;;;;;;15.05;8.70;;;;;;;;;;6253804;22;20019;-95
2023/05/11 16:12:58;;;;;;;15.77;8.70;;;;;;;;;;6282721;22;20011;-94
2023/05/11 16:33:10;;;;;;;11.95;6.78;;;;;;;;;;6288500;22;20058;-94
2023/05/11 16:35:43;;;;;;;10.63;6.38;;;;;;;;;;6262571;22;20519;-94
2023/05/11 16:38:25;;;;;;;9.63;6.15;;;;;;;;;;6263139;22;20012;-94
2023/05/11 16:40:51;;;;;;;11.20;7.00;;;;;;;;;;6293902;22;19987;-94
2023/05/11 16:43:19;;;;;;;14.20;6.85;;;;;;;;;;6260685;22;20010;-94
2023/05/11 16:45:48;;;;;;;11.23;7.03;;;;;;;;;;6258179;22;20487;-94
2023/05/11 16:48:14;;;;;;;14.85;6.85;;;;;;;;;;6284442;22;20065;-94
2023/05/11 16:50:41;;;;;;;16.00;7.63;;;;;;;;;;6262235;22;20442;-94
2023/05/11 16:53:45;;;;;;;10.88;6.88;;;;;;;;;;6265770;22;20007;-93
2023/05/11 16:56:12;;;;;;;12.95;7.38;;;;;;;;;;6207307;22;20031;-94
2023/05/11 16:58:47;;;;;;;13.63;6.28;;;;;;;;;;6261551;22;20019;-94
2023/05/11 17:01:25;;;;;;;10.07;6.18;;;;;;;;;;6286923;22;20158;-93
2023/05/11 17:03:52;;;;;;;10.50;6.47;;;;;;;;;;6287992;22;20012;-93
2023/05/11 17:06:22;;;;;;;10.32;6.50;;;;;;;;;;6259015;22;20062;-94
2023/05/11 17:08:54;;;;;;;10.95;6.63;;;;;;;;;;6287893;22;20043;-94
2023/05/11 17:11:23;;;;;;;11.93;7.18;;;;;;;;;;6287122;22;20007;-94
2023/05/11 17:13:55;;;;;;;12.85;7.40;;;;;;;;;;6262357;22;20058;-94
2023/05/11 17:16:29;;;;;;;14.00;7.63;;;;;;;;;;6279732;22;20091;-94
2023/05/11 17:19:16;;;;;;;10.57;6.40;;;;;;;;;;6286419;22;20055;-94
2023/05/11 17:21:44;;;;;;;13.77;7.20;;;;;;;;;;6263119;22;20007;-95
2023/05/11 17:24:11;;;;;;;11.55;7.18;;;;;;;;;;6270950;22;20007;-95
2023/05/11 17:27:13;;;;;;;10.85;6.45;;;;;;;;;;6261432;22;19999;-93
2023/05/11 17:29:46;;;;;;;10.43;6.07;;;;;;;;;;6206277;22;20010;-95
2023/05/11 17:32:35;;;;;;;13.95;7.07;;;;;;;;;;6287240;22;20003;-94
2023/05/11 17:35:10;;;;;;;11.07;6.47;;;;;;;;;;6271671;22;20312;-95
2023/05/11 17:37:41;;;;;;;9.90;5.97;;;;;;;;;;6286641;22;19999;-94
2023/05/11 17:40:10;;;;;;;17.67;7.00;;;;;;;;;;6259421;22;20042;-94
2023/05/11 17:42:50;;;;;;;10.70;6.40;;;;;;;;;;6261705;22;20042;-93
2023/05/11 17:45:16;;;;;;;8.85;5.38;;;;;;;;;;6286547;22;20004;-94
2023/05/11 17:47:46;;;;;;;11.05;6.20;;;;;;;;;;6287862;22;20008;-94
2023/05/11 17:50:23;;;;;;;10.90;5.57;;;;;;;;;;6253946;22;20007;-94
2023/05/11 17:52:49;;;;;;;15.73;5.57;;;;;;;;;;6285643;22;20023;-94
2023/05/11 17:55:34;;;;;;;10.38;5.85;;;;;;;;;;6260188;22;20030;-94
2023/05/11 17:58:09;;;;;;;14.73;6.00;;;;;;;;;;6263050;22;20016;-94
2023/05/11 18:00:57;;;;;;;15.82;6.03;;;;;;;;;;6264781;22;20012;-95
2023/05/11 18:03:23;;;;;;;12.77;5.97;;;;;;;;;;6285976;22;20061;-94
2023/05/11 18:05:50;;;;;;;10.05;5.85;;;;;;;;;;6284626;22;20098;-94
2023/05/11 18:08:40;;;;;;;12.15;6.10;;;;;;;;;;6286779;22;20004;-95
2023/05/11 18:11:09;;;;;;;13.02;7.53;;;;;;;;;;6285541;22;20000;-94
2023/05/11 18:13:46;;;;;;;;;;;;;;;;;;;;;
2023/05/11 18:16:20;;;;;;;17.42;6.82;;;;;;;;;;6212120;22;20656;-96
2023/05/11 18:18:50;;;;;;;10.13;6.13;;;;;;;;;;6284135;22;20384;-96
2023/05/11 18:21:19;;;;;;;13.38;7.20;;;;;;;;;;6259218;22;20430;-95
2023/05/11 18:26:36;;;;;;;17.73;9.02;;;;;;;;;;6286357;22;20061;-96
2023/05/11 18:29:05;;;;;;;13.98;7.28;;;;;;;;;;6285298;22;20057;-95
2023/05/11 18:31:31;;;;;;;12.15;6.70;;;;;;;;;;6284550;22;19996;-95
2023/05/11 18:34:14;;;;;;;;;;;;;;;;;;;;;
2023/05/11 18:36:47;;;;;;;10.40;5.10;;;;;;;;;;6286780;22;20024;-95
2023/05/11 18:39:27;;;;;;;11.57;5.35;;;;;;;;;;6286487;22;20003;-95
2023/05/11 18:45:11;;;;;;;9.73;5.15;;;;;;;;;;6193425;22;20012;-96
2023/05/11 18:47:53;;;;;;;;;;;;;;;;;;;;;
2023/05/11 18:53:53;;;;;;;7.60;4.65;;;;;;;;;;6285902;22;20091;-94
2023/05/11 18:59:40;;;;;;;;;;;;;;;;;;;;;
2023/05/11 19:05:50;;;;;;;9.52;5.53;;;;;;;;;;6286225;22;20010;-95
2023/05/11 19:15:05;;;;;;;9.60;4.45;;;;;;;;;;6105110;23;20223;-95
2023/05/11 19:27:55;;;;;;;;;;;;;;;;;;;;;
2023/05/11 19:30:53;;;;;;;9.50;4.27;;;;;;;;;;6279875;22;20019;-94
2023/05/11 19:33:31;;;;;;;10.20;5.47;;;;;;;;;;6284240;22;20251;-94
2023/05/11 19:36:23;;;;;;;10.25;4.88;;;;;;;;;;6285523;22;20012;-94
2023/05/11 19:45:42;;;;;;;12.80;5.97;;;;;;;;;;6205676;22;20449;-96
2023/05/11 19:48:08;;;;;;;17.98;9.13;;;;;;;;;;6282745;22;20064;-94
2023/05/11 19:51:05;;;;;;;13.05;6.20;;;;;;;;;;6283173;22;20000;-93
2023/05/11 19:53:42;;;;;;;12.00;5.72;;;;;;;;;;6285830;22;20004;-94
2023/05/11 19:56:12;;;;;;;10.85;5.72;;;;;;;;;;6258656;22;20012;-94
2023/05/11 19:59:31;;;;;;;;;;;;;;;;;;;;;
2023/05/11 20:11:41;;;;;;;18.48;7.15;;;;;;;;;;6254039;22;19992;-94
2023/05/11 20:14:18;;;;;;;20.75;8.40;;;;;;;;;;6250467;23;20000;-93
2023/05/11 20:16:55;;;;;;;20.08;8.57;;;;;;;;;;6252249;23;20461;-93
2023/05/11 20:19:33;;;;;;;22.55;8.32;;;;;;;;;;6224633;23;20011;-94
2023/05/11 20:22:35;;;;;;;26.83;10.05;;;;;;;;;;6250300;23;20004;-94
2023/05/11 20:25:10;;;;;;;30.83;10.07;;;;;;;;;;6133024;23;20010;-94
2023/05/11 20:27:59;;;;;;;33.57;10.80;;;;;;;;;;6237799;23;20215;-93
2023/05/11 20:30:49;;;;;;;32.15;10.63;;;;;;;;;;6225462;23;20235;-94
2023/05/11 20:33:18;;;;;;;;;;;;;;;;;;6230035;23;20179;-93
2023/05/11 20:36:27;;;;;;;29.83;10.18;;;;;;;;;;6251368;22;19903;-93
2023/05/11 20:39:12;;;;;;;32.17;9.88;;;;;;;;;;6219561;23;20012;-94
2023/05/11 20:44:45;;;;;;;24.38;9.77;;;;;;;;;;6252543;23;20019;-93
2023/05/11 20:47:22;;;;;;;;;;;;;;;;;;6201219;23;20051;-93
2023/05/11 20:49:48;;;;;;;23.80;9.32;;;;;;;;;;6252109;23;19909;-93
2023/05/11 20:55:52;;;;;;;;;;;;;;;;;;;;;
2023/05/11 20:58:38;;;;;;;;;;;;;;;;;;;;;
2023/05/11 21:04:17;;;;;;;25.48;11.15;;;;;;;;;;6213561;23;20026;-94
2023/05/11 21:09:36;;;;;;;23.20;9.77;;;;;;;;;;6244436;23;20407;-93
2023/05/11 21:12:02;;;;;;;24.17;9.85;;;;;;;;;;6203268;23;20397;-93